sensor_id;sensor_type;location;lat;lon;timestamp;temperature;humidity
75457;SHT31;64036;48.266;14.192;2023-06-19T00:02:07;17.28;60.07
75457;SHT31;64036;48.266;14.192;2023-06-19T00:04:32;17.15;60.68
75457;SHT31;64036;48.266;14.192;2023-06-19T00:06:59;17.06;60.99
75457;SHT31;64036;48.266;14.192;2023-06-19T00:09:25;17.00;61.20
75457;SHT31;64036;48.266;14.192;2023-06-19T00:11:51;16.91;61.60
75457;SHT31;64036;48.266;14.192;2023-06-19T00:14:17;16.83;62.02
75457;SHT31;64036;48.266;14.192;2023-06-19T00:16:43;16.76;62.30
75457;SHT31;64036;48.266;14.192;2023-06-19T00:19:09;16.66;62.95
75457;SHT31;64036;48.266;14.192;2023-06-19T00:21:36;16.57;62.96
75457;SHT31;64036;48.266;14.192;2023-06-19T00:24:03;16.55;62.61
75457;SHT31;64036;48.266;14.192;2023-06-19T00:26:30;16.54;62.53
75457;SHT31;64036;48.266;14.192;2023-06-19T00:28:56;16.52;62.77
75457;SHT31;64036;48.266;14.192;2023-06-19T00:31:22;16.50;62.75
75457;SHT31;64036;48.266;14.192;2023-06-19T00:33:49;16.42;63.62
75457;SHT31;64036;48.266;14.192;2023-06-19T00:36:15;16.33;63.92
75457;SHT31;64036;48.266;14.192;2023-06-19T00:38:45;16.27;64.24
75457;SHT31;64036;48.266;14.192;2023-06-19T00:41:11;16.23;64.43
75457;SHT31;64036;48.266;14.192;2023-06-19T00:43:37;16.14;64.65
75457;SHT31;64036;48.266;14.192;2023-06-19T00:46:03;16.10;64.66
75457;SHT31;64036;48.266;14.192;2023-06-19T00:48:29;16.10;64.31
75457;SHT31;64036;48.266;14.192;2023-06-19T00:50:57;16.12;64.02
75457;SHT31;64036;48.266;14.192;2023-06-19T00:53:23;16.14;64.12
75457;SHT31;64036;48.266;14.192;2023-06-19T00:55:53;16.15;63.74
75457;SHT31;64036;48.266;14.192;2023-06-19T00:58:20;16.15;64.27
75457;SHT31;64036;48.266;14.192;2023-06-19T01:00:47;16.09;64.82
75457;SHT31;64036;48.266;14.192;2023-06-19T01:03:14;16.00;65.57
75457;SHT31;64036;48.266;14.192;2023-06-19T01:05:41;15.92;65.90
75457;SHT31;64036;48.266;14.192;2023-06-19T01:11:03;15.87;65.82
75457;SHT31;64036;48.266;14.192;2023-06-19T01:13:50;15.86;65.68
75457;SHT31;64036;48.266;14.192;2023-06-19T01:16:41;15.88;65.53
75457;SHT31;64036;48.266;14.192;2023-06-19T01:19:09;15.88;65.63
75457;SHT31;64036;48.266;14.192;2023-06-19T01:21:36;15.85;65.97
75457;SHT31;64036;48.266;14.192;2023-06-19T01:24:02;15.81;66.00
75457;SHT31;64036;48.266;14.192;2023-06-19T01:26:28;15.81;65.78
75457;SHT31;64036;48.266;14.192;2023-06-19T01:28:54;15.80;65.74
75457;SHT31;64036;48.266;14.192;2023-06-19T01:31:21;15.79;65.92
75457;SHT31;64036;48.266;14.192;2023-06-19T01:33:59;15.79;65.86
75457;SHT31;64036;48.266;14.192;2023-06-19T01:36:29;15.78;66.14
75457;SHT31;64036;48.266;14.192;2023-06-19T01:38:56;15.76;66.25
75457;SHT31;64036;48.266;14.192;2023-06-19T01:41:23;15.70;66.78
75457;SHT31;64036;48.266;14.192;2023-06-19T01:43:50;15.62;67.13
75457;SHT31;64036;48.266;14.192;2023-06-19T01:46:17;15.58;67.03
75457;SHT31;64036;48.266;14.192;2023-06-19T01:48:43;15.58;66.81
75457;SHT31;64036;48.266;14.192;2023-06-19T01:51:09;15.58;67.03
75457;SHT31;64036;48.266;14.192;2023-06-19T01:53:35;15.53;67.37
75457;SHT31;64036;48.266;14.192;2023-06-19T01:56:01;15.49;67.36
75457;SHT31;64036;48.266;14.192;2023-06-19T01:58:27;15.49;67.17
75457;SHT31;64036;48.266;14.192;2023-06-19T02:00:53;15.51;67.05
75457;SHT31;64036;48.266;14.192;2023-06-19T02:03:19;15.47;67.42
75457;SHT31;64036;48.266;14.192;2023-06-19T02:05:46;15.41;67.81
75457;SHT31;64036;48.266;14.192;2023-06-19T02:08:12;15.38;67.66
75457;SHT31;64036;48.266;14.192;2023-06-19T02:10:37;15.34;68.03
75457;SHT31;64036;48.266;14.192;2023-06-19T02:13:03;15.30;67.96
75457;SHT31;64036;48.266;14.192;2023-06-19T02:15:28;15.30;67.50
75457;SHT31;64036;48.266;14.192;2023-06-19T02:17:57;15.30;67.42
75457;SHT31;64036;48.266;14.192;2023-06-19T02:20:23;15.27;67.57
75457;SHT31;64036;48.266;14.192;2023-06-19T02:22:49;15.26;67.49
75457;SHT31;64036;48.266;14.192;2023-06-19T02:25:17;15.24;67.56
75457;SHT31;64036;48.266;14.192;2023-06-19T02:27:42;15.22;67.66
75457;SHT31;64036;48.266;14.192;2023-06-19T02:30:08;15.20;67.74
75457;SHT31;64036;48.266;14.192;2023-06-19T02:32:35;15.15;67.97
75457;SHT31;64036;48.266;14.192;2023-06-19T02:35:00;15.09;68.09
75457;SHT31;64036;48.266;14.192;2023-06-19T02:37:26;15.00;68.51
75457;SHT31;64036;48.266;14.192;2023-06-19T02:39:52;14.95;68.42
75457;SHT31;64036;48.266;14.192;2023-06-19T02:42:17;14.98;68.18
75457;SHT31;64036;48.266;14.192;2023-06-19T02:44:43;15.00;68.19
75457;SHT31;64036;48.266;14.192;2023-06-19T02:47:09;14.98;68.35
75457;SHT31;64036;48.266;14.192;2023-06-19T02:49:35;14.98;68.34
75457;SHT31;64036;48.266;14.192;2023-06-19T02:52:00;14.98;68.50
75457;SHT31;64036;48.266;14.192;2023-06-19T02:54:26;14.94;68.80
75457;SHT31;64036;48.266;14.192;2023-06-19T02:56:51;14.89;68.90
75457;SHT31;64036;48.266;14.192;2023-06-19T02:59:17;14.90;68.77
75457;SHT31;64036;48.266;14.192;2023-06-19T03:01:43;14.91;68.56
75457;SHT31;64036;48.266;14.192;2023-06-19T03:04:08;14.94;68.69
75457;SHT31;64036;48.266;14.192;2023-06-19T03:06:34;14.94;68.90
75457;SHT31;64036;48.266;14.192;2023-06-19T03:09:05;14.96;69.14
75457;SHT31;64036;48.266;14.192;2023-06-19T03:11:40;14.97;69.35
75457;SHT31;64036;48.266;14.192;2023-06-19T03:14:06;14.98;69.50
75457;SHT31;64036;48.266;14.192;2023-06-19T03:16:35;14.96;69.84
75457;SHT31;64036;48.266;14.192;2023-06-19T03:19:01;14.93;70.02
75457;SHT31;64036;48.266;14.192;2023-06-19T03:21:27;14.93;70.19
75457;SHT31;64036;48.266;14.192;2023-06-19T03:23:53;14.90;70.20
75457;SHT31;64036;48.266;14.192;2023-06-19T03:26:19;14.92;70.16
75457;SHT31;64036;48.266;14.192;2023-06-19T03:28:45;14.95;70.18
75457;SHT31;64036;48.266;14.192;2023-06-19T03:31:13;14.94;70.39
75457;SHT31;64036;48.266;14.192;2023-06-19T03:33:39;14.96;70.32
75457;SHT31;64036;48.266;14.192;2023-06-19T03:36:05;15.02;70.31
75457;SHT31;64036;48.266;14.192;2023-06-19T03:38:31;15.06;70.43
75457;SHT31;64036;48.266;14.192;2023-06-19T03:40:56;15.09;70.58
75457;SHT31;64036;48.266;14.192;2023-06-19T03:43:22;15.15;70.39
75457;SHT31;64036;48.266;14.192;2023-06-19T03:45:47;15.20;70.63
75457;SHT31;64036;48.266;14.192;2023-06-19T03:48:15;15.21;71.15
75457;SHT31;64036;48.266;14.192;2023-06-19T03:50:42;15.26;71.46
75457;SHT31;64036;48.266;14.192;2023-06-19T03:53:08;15.34;71.70
75457;SHT31;64036;48.266;14.192;2023-06-19T03:55:33;15.45;71.60
75457;SHT31;64036;48.266;14.192;2023-06-19T03:58:00;15.59;71.49
75457;SHT31;64036;48.266;14.192;2023-06-19T04:00:26;15.77;71.16
75457;SHT31;64036;48.266;14.192;2023-06-19T04:02:51;15.96;71.01
75457;SHT31;64036;48.266;14.192;2023-06-19T04:05:17;16.15;70.89
75457;SHT31;64036;48.266;14.192;2023-06-19T04:07:44;16.39;70.93
75457;SHT31;64036;48.266;14.192;2023-06-19T04:10:10;16.63;70.91
75457;SHT31;64036;48.266;14.192;2023-06-19T04:12:39;17.10;70.44
75457;SHT31;64036;48.266;14.192;2023-06-19T04:15:06;17.81;69.19
75457;SHT31;64036;48.266;14.192;2023-06-19T04:17:32;18.64;67.60
75457;SHT31;64036;48.266;14.192;2023-06-19T04:19:58;19.47;65.99
75457;SHT31;64036;48.266;14.192;2023-06-19T04:22:23;20.27;63.87
75457;SHT31;64036;48.266;14.192;2023-06-19T04:24:49;21.02;62.41
75457;SHT31;64036;48.266;14.192;2023-06-19T04:27:15;21.76;60.67
75457;SHT31;64036;48.266;14.192;2023-06-19T04:29:40;22.44;58.21
75457;SHT31;64036;48.266;14.192;2023-06-19T04:32:06;23.05;56.43
75457;SHT31;64036;48.266;14.192;2023-06-19T04:34:36;23.63;54.23
75457;SHT31;64036;48.266;14.192;2023-06-19T04:37:04;24.17;53.15
75457;SHT31;64036;48.266;14.192;2023-06-19T04:39:30;24.78;52.37
75457;SHT31;64036;48.266;14.192;2023-06-19T04:41:55;25.29;50.74
75457;SHT31;64036;48.266;14.192;2023-06-19T04:44:21;25.73;50.27
75457;SHT31;64036;48.266;14.192;2023-06-19T04:46:47;25.76;49.31
75457;SHT31;64036;48.266;14.192;2023-06-19T04:49:12;25.55;49.01
75457;SHT31;64036;48.266;14.192;2023-06-19T04:51:38;25.46;49.02
75457;SHT31;64036;48.266;14.192;2023-06-19T04:54:04;25.30;48.82
75457;SHT31;64036;48.266;14.192;2023-06-19T04:56:30;25.38;48.45
75457;SHT31;64036;48.266;14.192;2023-06-19T04:58:55;25.63;47.44
75457;SHT31;64036;48.266;14.192;2023-06-19T05:01:26;25.37;47.24
75457;SHT31;64036;48.266;14.192;2023-06-19T05:03:55;25.44;47.20
75457;SHT31;64036;48.266;14.192;2023-06-19T05:06:25;25.90;46.54
75457;SHT31;64036;48.266;14.192;2023-06-19T05:08:51;26.42;45.62
75457;SHT31;64036;48.266;14.192;2023-06-19T05:11:17;26.87;44.65
75457;SHT31;64036;48.266;14.192;2023-06-19T05:13:43;27.05;44.56
75457;SHT31;64036;48.266;14.192;2023-06-19T05:16:09;27.12;44.18
75457;SHT31;64036;48.266;14.192;2023-06-19T05:18:36;27.11;43.83
75457;SHT31;64036;48.266;14.192;2023-06-19T05:21:02;26.87;44.08
75457;SHT31;64036;48.266;14.192;2023-06-19T05:23:27;26.65;44.39
75457;SHT31;64036;48.266;14.192;2023-06-19T05:25:53;26.48;44.77
75457;SHT31;64036;48.266;14.192;2023-06-19T05:28:19;26.37;44.95
75457;SHT31;64036;48.266;14.192;2023-06-19T05:30:44;26.84;44.80
75457;SHT31;64036;48.266;14.192;2023-06-19T05:33:10;27.64;43.69
75457;SHT31;64036;48.266;14.192;2023-06-19T05:35:41;28.47;42.97
75457;SHT31;64036;48.266;14.192;2023-06-19T05:38:08;29.32;41.67
75457;SHT31;64036;48.266;14.192;2023-06-19T05:40:34;30.00;40.66
75457;SHT31;64036;48.266;14.192;2023-06-19T05:43:00;30.48;40.28
75457;SHT31;64036;48.266;14.192;2023-06-19T05:45:26;30.93;39.40
75457;SHT31;64036;48.266;14.192;2023-06-19T05:47:52;31.53;38.48
75457;SHT31;64036;48.266;14.192;2023-06-19T05:50:17;32.13;37.51
75457;SHT31;64036;48.266;14.192;2023-06-19T05:52:43;32.70;37.16
75457;SHT31;64036;48.266;14.192;2023-06-19T05:55:09;33.13;36.29
75457;SHT31;64036;48.266;14.192;2023-06-19T05:57:36;33.66;35.64
75457;SHT31;64036;48.266;14.192;2023-06-19T06:00:02;34.06;34.66
75457;SHT31;64036;48.266;14.192;2023-06-19T06:02:30;34.39;34.18
75457;SHT31;64036;48.266;14.192;2023-06-19T06:04:56;34.71;33.45
75457;SHT31;64036;48.266;14.192;2023-06-19T06:07:22;34.31;32.89
75457;SHT31;64036;48.266;14.192;2023-06-19T06:09:47;33.85;33.37
75457;SHT31;64036;48.266;14.192;2023-06-19T06:12:13;34.49;33.03
75457;SHT31;64036;48.266;14.192;2023-06-19T06:14:40;34.82;31.97
75457;SHT31;64036;48.266;14.192;2023-06-19T06:17:06;33.93;32.08
75457;SHT31;64036;48.266;14.192;2023-06-19T06:19:32;33.00;33.44
75457;SHT31;64036;48.266;14.192;2023-06-19T06:21:58;33.06;33.90
75457;SHT31;64036;48.266;14.192;2023-06-19T06:24:23;33.19;34.74
75457;SHT31;64036;48.266;14.192;2023-06-19T06:26:49;33.06;34.30
75457;SHT31;64036;48.266;14.192;2023-06-19T06:29:14;32.87;33.63
75457;SHT31;64036;48.266;14.192;2023-06-19T06:31:40;32.42;34.32
75457;SHT31;64036;48.266;14.192;2023-06-19T06:34:06;31.96;35.31
75457;SHT31;64036;48.266;14.192;2023-06-19T06:36:32;31.51;35.34
75457;SHT31;64036;48.266;14.192;2023-06-19T06:38:58;31.21;35.94
75457;SHT31;64036;48.266;14.192;2023-06-19T06:41:24;31.13;35.99
75457;SHT31;64036;48.266;14.192;2023-06-19T06:43:49;30.93;36.32
75457;SHT31;64036;48.266;14.192;2023-06-19T06:46:16;30.73;36.87
75457;SHT31;64036;48.266;14.192;2023-06-19T06:48:41;30.53;37.01
75457;SHT31;64036;48.266;14.192;2023-06-19T06:51:07;30.35;37.69
75457;SHT31;64036;48.266;14.192;2023-06-19T06:53:34;30.06;38.06
75457;SHT31;64036;48.266;14.192;2023-06-19T06:56:00;29.78;39.28
75457;SHT31;64036;48.266;14.192;2023-06-19T06:58:26;29.80;38.74
75457;SHT31;64036;48.266;14.192;2023-06-19T07:00:52;29.99;38.13
75457;SHT31;64036;48.266;14.192;2023-06-19T07:03:18;30.02;38.03
75457;SHT31;64036;48.266;14.192;2023-06-19T07:05:44;30.18;38.37
75457;SHT31;64036;48.266;14.192;2023-06-19T07:08:09;30.10;39.45
75457;SHT31;64036;48.266;14.192;2023-06-19T07:10:35;29.68;39.53
75457;SHT31;64036;48.266;14.192;2023-06-19T07:13:01;28.99;40.26
75457;SHT31;64036;48.266;14.192;2023-06-19T07:15:27;28.45;41.23
75457;SHT31;64036;48.266;14.192;2023-06-19T07:17:52;27.93;41.72
75457;SHT31;64036;48.266;14.192;2023-06-19T07:20:18;27.63;42.81
75457;SHT31;64036;48.266;14.192;2023-06-19T07:22:43;27.46;43.31
75457;SHT31;64036;48.266;14.192;2023-06-19T07:25:10;27.29;44.00
75457;SHT31;64036;48.266;14.192;2023-06-19T07:27:37;27.10;44.74
75457;SHT31;64036;48.266;14.192;2023-06-19T07:30:06;26.81;44.98
75457;SHT31;64036;48.266;14.192;2023-06-19T07:32:32;26.45;45.92
75457;SHT31;64036;48.266;14.192;2023-06-19T07:34:58;26.13;46.51
75457;SHT31;64036;48.266;14.192;2023-06-19T07:37:23;25.85;47.64
75457;SHT31;64036;48.266;14.192;2023-06-19T07:39:50;25.71;48.30
75457;SHT31;64036;48.266;14.192;2023-06-19T07:42:19;25.54;49.02
75457;SHT31;64036;48.266;14.192;2023-06-19T07:44:45;25.36;49.73
75457;SHT31;64036;48.266;14.192;2023-06-19T07:47:11;25.17;50.08
75457;SHT31;64036;48.266;14.192;2023-06-19T07:49:37;25.04;50.27
75457;SHT31;64036;48.266;14.192;2023-06-19T07:52:03;24.99;50.41
75457;SHT31;64036;48.266;14.192;2023-06-19T07:54:29;24.99;50.76
75457;SHT31;64036;48.266;14.192;2023-06-19T07:56:55;25.03;50.49
75457;SHT31;64036;48.266;14.192;2023-06-19T07:59:21;25.10;50.70
75457;SHT31;64036;48.266;14.192;2023-06-19T08:01:47;25.25;50.67
75457;SHT31;64036;48.266;14.192;2023-06-19T08:04:13;25.53;50.51
75457;SHT31;64036;48.266;14.192;2023-06-19T08:06:39;25.73;49.86
75457;SHT31;64036;48.266;14.192;2023-06-19T08:09:05;25.90;49.23
75457;SHT31;64036;48.266;14.192;2023-06-19T08:11:30;26.06;48.69
75457;SHT31;64036;48.266;14.192;2023-06-19T08:13:56;26.40;48.66
75457;SHT31;64036;48.266;14.192;2023-06-19T08:16:21;26.80;47.05
75457;SHT31;64036;48.266;14.192;2023-06-19T08:18:47;27.22;46.19
75457;SHT31;64036;48.266;14.192;2023-06-19T08:21:13;27.61;46.53
75457;SHT31;64036;48.266;14.192;2023-06-19T08:23:39;28.02;45.46
75457;SHT31;64036;48.266;14.192;2023-06-19T08:26:05;28.45;44.98
75457;SHT31;64036;48.266;14.192;2023-06-19T08:28:33;28.71;45.33
75457;SHT31;64036;48.266;14.192;2023-06-19T08:30:58;28.94;45.28
75457;SHT31;64036;48.266;14.192;2023-06-19T08:33:24;29.31;45.16
75457;SHT31;64036;48.266;14.192;2023-06-19T08:35:50;29.70;44.51
75457;SHT31;64036;48.266;14.192;2023-06-19T08:38:15;29.89;43.12
75457;SHT31;64036;48.266;14.192;2023-06-19T08:40:41;30.01;42.54
75457;SHT31;64036;48.266;14.192;2023-06-19T08:43:08;30.26;42.41
75457;SHT31;64036;48.266;14.192;2023-06-19T08:45:34;30.54;42.04
75457;SHT31;64036;48.266;14.192;2023-06-19T08:48:00;31.40;41.22
75457;SHT31;64036;48.266;14.192;2023-06-19T08:50:31;32.98;39.09
75457;SHT31;64036;48.266;14.192;2023-06-19T08:52:57;34.34;36.83
75457;SHT31;64036;48.266;14.192;2023-06-19T08:55:23;35.31;34.82
75457;SHT31;64036;48.266;14.192;2023-06-19T08:57:50;35.97;33.16
75457;SHT31;64036;48.266;14.192;2023-06-19T09:00:27;36.39;32.38
75457;SHT31;64036;48.266;14.192;2023-06-19T09:02:59;36.64;32.22
75457;SHT31;64036;48.266;14.192;2023-06-19T09:05:27;36.94;32.02
75457;SHT31;64036;48.266;14.192;2023-06-19T09:07:56;37.29;30.73
75457;SHT31;64036;48.266;14.192;2023-06-19T09:10:28;37.54;30.61
75457;SHT31;64036;48.266;14.192;2023-06-19T09:12:57;37.95;30.68
75457;SHT31;64036;48.266;14.192;2023-06-19T09:15:32;38.21;30.10
75457;SHT31;64036;48.266;14.192;2023-06-19T09:18:08;38.29;29.72
75457;SHT31;64036;48.266;14.192;2023-06-19T09:20:38;38.50;29.01
75457;SHT31;64036;48.266;14.192;2023-06-19T09:23:12;38.68;28.77
75457;SHT31;64036;48.266;14.192;2023-06-19T09:25:51;38.23;28.65
75457;SHT31;64036;48.266;14.192;2023-06-19T09:28:22;37.59;29.01
75457;SHT31;64036;48.266;14.192;2023-06-19T09:30:56;37.37;29.45
75457;SHT31;64036;48.266;14.192;2023-06-19T09:33:31;37.00;30.01
75457;SHT31;64036;48.266;14.192;2023-06-19T09:35:58;36.51;30.26
75457;SHT31;64036;48.266;14.192;2023-06-19T09:38:28;36.10;30.91
75457;SHT31;64036;48.266;14.192;2023-06-19T09:40:57;35.55;31.39
75457;SHT31;64036;48.266;14.192;2023-06-19T09:43:30;35.16;32.34
75457;SHT31;64036;48.266;14.192;2023-06-19T09:46:09;34.79;32.00
75457;SHT31;64036;48.266;14.192;2023-06-19T09:48:40;34.35;32.27
75457;SHT31;64036;48.266;14.192;2023-06-19T09:51:18;34.50;32.85
75457;SHT31;64036;48.266;14.192;2023-06-19T09:53:46;35.35;32.14
75457;SHT31;64036;48.266;14.192;2023-06-19T09:56:15;36.01;31.10
75457;SHT31;64036;48.266;14.192;2023-06-19T09:58:42;36.53;30.37
75457;SHT31;64036;48.266;14.192;2023-06-19T10:01:09;36.67;30.16
75457;SHT31;64036;48.266;14.192;2023-06-19T10:03:36;36.78;30.02
75457;SHT31;64036;48.266;14.192;2023-06-19T10:06:03;36.91;29.83
75457;SHT31;64036;48.266;14.192;2023-06-19T10:08:30;36.98;29.67
75457;SHT31;64036;48.266;14.192;2023-06-19T10:11:04;37.00;29.09
75457;SHT31;64036;48.266;14.192;2023-06-19T10:13:31;36.96;29.34
75457;SHT31;64036;48.266;14.192;2023-06-19T10:16:00;36.97;29.66
75457;SHT31;64036;48.266;14.192;2023-06-19T10:18:26;36.73;29.35
75457;SHT31;64036;48.266;14.192;2023-06-19T10:20:53;36.69;29.72
75457;SHT31;64036;48.266;14.192;2023-06-19T10:23:21;36.68;30.17
75457;SHT31;64036;48.266;14.192;2023-06-19T10:28:22;36.88;30.58
75457;SHT31;64036;48.266;14.192;2023-06-19T10:33:21;36.62;30.60
75457;SHT31;64036;48.266;14.192;2023-06-19T10:35:48;36.40;30.47
75457;SHT31;64036;48.266;14.192;2023-06-19T10:38:16;36.18;31.01
75457;SHT31;64036;48.266;14.192;2023-06-19T10:40:43;35.98;32.40
75457;SHT31;64036;48.266;14.192;2023-06-19T10:43:10;36.00;31.87
75457;SHT31;64036;48.266;14.192;2023-06-19T10:45:37;35.90;31.78
75457;SHT31;64036;48.266;14.192;2023-06-19T10:48:03;35.68;31.89
75457;SHT31;64036;48.266;14.192;2023-06-19T10:50:33;35.51;32.29
75457;SHT31;64036;48.266;14.192;2023-06-19T10:53:01;35.31;32.41
75457;SHT31;64036;48.266;14.192;2023-06-19T10:55:27;35.08;32.84
75457;SHT31;64036;48.266;14.192;2023-06-19T10:57:53;34.78;34.65
75457;SHT31;64036;48.266;14.192;2023-06-19T11:00:22;34.46;34.07
75457;SHT31;64036;48.266;14.192;2023-06-19T11:02:53;34.34;33.98
75457;SHT31;64036;48.266;14.192;2023-06-19T11:05:20;34.38;33.96
75457;SHT31;64036;48.266;14.192;2023-06-19T11:07:54;34.07;34.10
75457;SHT31;64036;48.266;14.192;2023-06-19T11:10:23;33.93;32.55
75457;SHT31;64036;48.266;14.192;2023-06-19T11:12:55;33.90;32.65
75457;SHT31;64036;48.266;14.192;2023-06-19T11:15:32;33.90;31.78
75457;SHT31;64036;48.266;14.192;2023-06-19T11:18:00;34.19;33.61
75457;SHT31;64036;48.266;14.192;2023-06-19T11:20:28;34.67;33.68
75457;SHT31;64036;48.266;14.192;2023-06-19T11:22:55;34.79;32.03
75457;SHT31;64036;48.266;14.192;2023-06-19T11:25:22;34.72;31.86
75457;SHT31;64036;48.266;14.192;2023-06-19T11:27:48;34.73;31.83
75457;SHT31;64036;48.266;14.192;2023-06-19T11:30:17;34.67;32.35
75457;SHT31;64036;48.266;14.192;2023-06-19T11:32:47;34.47;32.49
75457;SHT31;64036;48.266;14.192;2023-06-19T11:35:15;34.32;32.40
75457;SHT31;64036;48.266;14.192;2023-06-19T11:37:42;34.36;32.91
75457;SHT31;64036;48.266;14.192;2023-06-19T11:40:11;34.52;33.49
75457;SHT31;64036;48.266;14.192;2023-06-19T11:42:52;34.78;33.83
75457;SHT31;64036;48.266;14.192;2023-06-19T11:45:19;35.03;32.44
75457;SHT31;64036;48.266;14.192;2023-06-19T11:47:46;34.79;32.01
75457;SHT31;64036;48.266;14.192;2023-06-19T11:50:13;34.56;33.33
75457;SHT31;64036;48.266;14.192;2023-06-19T11:52:41;34.74;33.83
75457;SHT31;64036;48.266;14.192;2023-06-19T11:55:09;34.68;32.91
75457;SHT31;64036;48.266;14.192;2023-06-19T11:57:35;34.50;32.77
75457;SHT31;64036;48.266;14.192;2023-06-19T12:00:01;34.35;32.78
75457;SHT31;64036;48.266;14.192;2023-06-19T12:02:32;34.23;33.73
75457;SHT31;64036;48.266;14.192;2023-06-19T12:04:57;34.25;33.55
75457;SHT31;64036;48.266;14.192;2023-06-19T12:07:23;34.40;32.94
75457;SHT31;64036;48.266;14.192;2023-06-19T12:09:48;34.62;32.09
75457;SHT31;64036;48.266;14.192;2023-06-19T12:12:14;34.51;32.36
75457;SHT31;64036;48.266;14.192;2023-06-19T12:14:39;34.27;32.84
75457;SHT31;64036;48.266;14.192;2023-06-19T12:17:05;34.07;32.53
75457;SHT31;64036;48.266;14.192;2023-06-19T12:19:31;33.97;33.25
75457;SHT31;64036;48.266;14.192;2023-06-19T12:21:56;33.98;34.20
75457;SHT31;64036;48.266;14.192;2023-06-19T12:24:22;34.16;34.27
75457;SHT31;64036;48.266;14.192;2023-06-19T12:26:48;34.27;34.27
75457;SHT31;64036;48.266;14.192;2023-06-19T12:29:13;34.21;34.40
75457;SHT31;64036;48.266;14.192;2023-06-19T12:31:39;34.07;35.08
75457;SHT31;64036;48.266;14.192;2023-06-19T12:34:05;33.91;35.20
75457;SHT31;64036;48.266;14.192;2023-06-19T12:36:31;33.81;35.36
75457;SHT31;64036;48.266;14.192;2023-06-19T12:38:58;33.82;35.08
75457;SHT31;64036;48.266;14.192;2023-06-19T12:41:24;33.70;34.72
75457;SHT31;64036;48.266;14.192;2023-06-19T12:43:50;33.50;35.49
75457;SHT31;64036;48.266;14.192;2023-06-19T12:46:16;33.35;34.36
75457;SHT31;64036;48.266;14.192;2023-06-19T12:48:41;33.17;34.46
75457;SHT31;64036;48.266;14.192;2023-06-19T12:51:07;32.89;34.60
75457;SHT31;64036;48.266;14.192;2023-06-19T12:53:33;32.63;35.36
75457;SHT31;64036;48.266;14.192;2023-06-19T12:55:59;32.47;35.70
75457;SHT31;64036;48.266;14.192;2023-06-19T12:58:25;32.51;36.16
75457;SHT31;64036;48.266;14.192;2023-06-19T13:00:53;32.57;36.12
75457;SHT31;64036;48.266;14.192;2023-06-19T13:03:19;32.60;35.86
75457;SHT31;64036;48.266;14.192;2023-06-19T13:05:45;32.56;35.51
75457;SHT31;64036;48.266;14.192;2023-06-19T13:08:11;32.65;36.64
75457;SHT31;64036;48.266;14.192;2023-06-19T13:10:37;32.67;36.14
75457;SHT31;64036;48.266;14.192;2023-06-19T13:13:03;32.58;36.54
75457;SHT31;64036;48.266;14.192;2023-06-19T13:15:31;32.53;35.72
75457;SHT31;64036;48.266;14.192;2023-06-19T13:17:59;32.48;35.45
75457;SHT31;64036;48.266;14.192;2023-06-19T13:20:25;32.47;35.93
75457;SHT31;64036;48.266;14.192;2023-06-19T13:22:50;32.36;36.21
75457;SHT31;64036;48.266;14.192;2023-06-19T13:25:18;32.28;36.87
75457;SHT31;64036;48.266;14.192;2023-06-19T13:27:44;32.32;36.19
75457;SHT31;64036;48.266;14.192;2023-06-19T13:30:10;32.18;35.94
75457;SHT31;64036;48.266;14.192;2023-06-19T13:32:36;32.05;36.28
75457;SHT31;64036;48.266;14.192;2023-06-19T13:35:03;32.02;36.05
75457;SHT31;64036;48.266;14.192;2023-06-19T13:37:30;31.94;35.65
75457;SHT31;64036;48.266;14.192;2023-06-19T13:39:58;31.88;35.62
75457;SHT31;64036;48.266;14.192;2023-06-19T13:42:23;31.86;35.14
75457;SHT31;64036;48.266;14.192;2023-06-19T13:44:49;31.90;35.43
75457;SHT31;64036;48.266;14.192;2023-06-19T13:47:15;31.89;34.53
75457;SHT31;64036;48.266;14.192;2023-06-19T13:49:40;31.87;35.01
75457;SHT31;64036;48.266;14.192;2023-06-19T13:52:06;31.86;34.00
75457;SHT31;64036;48.266;14.192;2023-06-19T13:54:32;31.86;32.25
75457;SHT31;64036;48.266;14.192;2023-06-19T13:56:58;31.89;31.42
75457;SHT31;64036;48.266;14.192;2023-06-19T13:59:24;31.88;32.23
75457;SHT31;64036;48.266;14.192;2023-06-19T14:01:50;31.89;33.06
75457;SHT31;64036;48.266;14.192;2023-06-19T14:04:15;32.11;33.14
75457;SHT31;64036;48.266;14.192;2023-06-19T14:06:41;32.12;32.87
75457;SHT31;64036;48.266;14.192;2023-06-19T14:09:08;32.06;31.99
75457;SHT31;64036;48.266;14.192;2023-06-19T14:11:35;32.12;32.09
75457;SHT31;64036;48.266;14.192;2023-06-19T14:14:00;32.13;32.31
75457;SHT31;64036;48.266;14.192;2023-06-19T14:16:26;32.08;32.10
75457;SHT31;64036;48.266;14.192;2023-06-19T14:18:52;32.04;32.11
75457;SHT31;64036;48.266;14.192;2023-06-19T14:21:17;32.04;31.22
75457;SHT31;64036;48.266;14.192;2023-06-19T14:23:43;32.00;31.01
75457;SHT31;64036;48.266;14.192;2023-06-19T14:26:12;31.93;31.00
75457;SHT31;64036;48.266;14.192;2023-06-19T14:28:38;31.78;31.80
75457;SHT31;64036;48.266;14.192;2023-06-19T14:31:07;31.73;32.43
75457;SHT31;64036;48.266;14.192;2023-06-19T14:33:32;31.74;32.14
75457;SHT31;64036;48.266;14.192;2023-06-19T14:36:00;31.73;32.34
75457;SHT31;64036;48.266;14.192;2023-06-19T14:38:28;31.67;31.79
75457;SHT31;64036;48.266;14.192;2023-06-19T14:40:59;31.57;31.46
75457;SHT31;64036;48.266;14.192;2023-06-19T14:43:26;31.53;31.50
75457;SHT31;64036;48.266;14.192;2023-06-19T14:45:52;31.47;31.15
75457;SHT31;64036;48.266;14.192;2023-06-19T14:48:18;31.47;31.01
75457;SHT31;64036;48.266;14.192;2023-06-19T14:50:44;31.45;31.14
75457;SHT31;64036;48.266;14.192;2023-06-19T14:53:10;31.37;31.33
75457;SHT31;64036;48.266;14.192;2023-06-19T14:55:35;31.26;31.63
75457;SHT31;64036;48.266;14.192;2023-06-19T14:58:03;31.19;31.45
75457;SHT31;64036;48.266;14.192;2023-06-19T15:00:30;31.09;32.04
75457;SHT31;64036;48.266;14.192;2023-06-19T15:02:55;31.05;32.86
75457;SHT31;64036;48.266;14.192;2023-06-19T15:05:21;31.05;32.57
75457;SHT31;64036;48.266;14.192;2023-06-19T15:07:46;31.04;32.20
75457;SHT31;64036;48.266;14.192;2023-06-19T15:10:12;31.07;31.81
75457;SHT31;64036;48.266;14.192;2023-06-19T15:12:38;31.13;33.10
75457;SHT31;64036;48.266;14.192;2023-06-19T15:15:04;31.16;32.82
75457;SHT31;64036;48.266;14.192;2023-06-19T15:17:30;31.09;32.07
75457;SHT31;64036;48.266;14.192;2023-06-19T15:19:56;31.15;32.28
75457;SHT31;64036;48.266;14.192;2023-06-19T15:22:21;31.15;32.03